Time;durP1;ratioP1;P1;durP2;ratioP2;P2;SDS_P1;SDS_P2;PMS_P1;PMS_P2;Temp;Humidity;BMP_temperature;BMP_pressure;BME280_temperature;BME280_humidity;BME280_pressure;Samples;Min_cycle;Max_cycle;Signal;HPM_P1;HPM_P2
2021/08/04 00:00:27;;;;;;;12.32;8.70;;;;;;;22.54;64.27;96452.59;5074757;28;20077;-65
2021/08/04 00:02:53;;;;;;;14.00;7.70;;;;;;;22.49;64.55;96457.50;5074909;28;20048;-65
2021/08/04 00:05:20;;;;;;;12.57;7.53;;;;;;;22.46;64.62;96450.63;5074669;28;20040;-65
2021/08/04 00:07:45;;;;;;;16.83;8.32;;;;;;;22.44;65.14;96444.59;5074647;28;20033;-65
2021/08/04 00:10:12;;;;;;;13.90;7.55;;;;;;;22.37;64.63;96444.31;5074553;28;20023;-65
2021/08/04 00:12:37;;;;;;;15.60;7.72;;;;;;;22.36;65.15;96441.78;5074519;28;20059;-65
2021/08/04 00:15:03;;;;;;;12.07;8.13;;;;;;;22.28;64.64;96448.63;5074643;28;20432;-65
2021/08/04 00:17:29;;;;;;;16.95;8.35;;;;;;;22.30;65.11;96449.31;5074448;28;20055;-65
2021/08/04 00:19:55;;;;;;;16.52;8.15;;;;;;;22.26;64.55;96452.38;5074471;28;20056;-65
2021/08/04 00:22:21;;;;;;;13.80;8.18;;;;;;;22.18;64.06;96458.38;5074408;28;20025;-65
2021/08/04 00:24:47;;;;;;;14.90;7.90;;;;;;;22.15;65.42;96456.81;5074298;28;20016;-65
2021/08/04 00:27:12;;;;;;;11.88;8.38;;;;;;;22.10;65.62;96456.38;5074212;28;20077;-65
2021/08/04 00:29:38;;;;;;;14.32;8.13;;;;;;;22.06;65.24;96453.13;5074437;28;20036;-65
2021/08/04 00:32:05;;;;;;;14.35;8.98;;;;;;;22.02;65.02;96448.22;5074267;28;20028;-65
2021/08/04 00:34:30;;;;;;;17.20;7.65;;;;;;;21.96;64.96;96458.44;5074155;28;20036;-65
2021/08/04 00:36:56;;;;;;;12.65;8.77;;;;;;;21.87;64.86;96458.34;5074010;28;20036;-65
2021/08/04 00:39:22;;;;;;;13.52;8.50;;;;;;;21.84;65.87;96448.81;5056182;28;20047;-65
2021/08/04 00:41:47;;;;;;;12.05;8.30;;;;;;;21.80;65.66;96458.03;5073693;28;20044;-65
2021/08/04 00:44:13;;;;;;;11.63;8.30;;;;;;;21.77;65.75;96453.84;5074043;28;20044;-65
2021/08/04 00:46:40;;;;;;;13.32;8.45;;;;;;;21.73;65.88;96456.84;5073156;28;20035;-65
2021/08/04 00:49:06;;;;;;;10.23;8.15;;;;;;;21.68;65.69;96454.59;5073785;28;20103;-65
2021/08/04 00:51:32;;;;;;;13.27;7.63;;;;;;;21.65;65.82;96447.72;5055974;28;20067;-65
2021/08/04 00:53:57;;;;;;;13.77;8.75;;;;;;;21.61;65.60;96448.91;5073878;28;20378;-65
2021/08/04 00:56:25;;;;;;;11.48;7.93;;;;;;;21.59;66.33;96441.06;5073686;28;20025;-65
2021/08/04 00:58:51;;;;;;;19.73;10.18;;;;;;;21.53;66.87;96441.59;5073763;28;20523;-65
2021/08/04 01:01:22;;;;;;;14.80;8.40;;;;;;;21.46;66.52;96446.59;5073500;28;20028;-65
2021/08/04 01:03:54;;;;;;;16.65;8.05;;;;;;;21.38;66.90;96445.56;5073579;28;20036;-65
2021/08/04 01:06:34;;;;;;;11.52;7.55;;;;;;;21.32;67.23;96450.44;5073612;28;20472;-65
2021/08/04 01:09:01;;;;;;;15.60;8.25;;;;;;;21.31;66.90;96454.03;5073622;28;20024;-64
2021/08/04 01:11:33;;;;;;;13.90;8.68;;;;;;;21.21;67.49;96453.97;5073332;28;20429;-65
2021/08/04 01:14:04;;;;;;;13.52;8.45;;;;;;;21.23;67.61;96451.19;5073422;28;20039;-65
2021/08/04 01:16:32;;;;;;;14.30;8.23;;;;;;;21.20;66.76;96452.25;5073382;28;20074;-65
2021/08/04 01:19:09;;;;;;;16.27;7.88;;;;;;;21.27;67.57;96457.06;5073318;28;20045;-65
2021/08/04 01:21:48;;;;;;;10.68;8.35;;;;;;;21.25;67.33;96454.53;5073240;28;20439;-65
2021/08/04 01:24:52;;;;;;;15.27;8.55;;;;;;;21.18;67.63;96440.94;5073257;28;20025;-65
2021/08/04 01:27:18;;;;;;;11.20;7.93;;;;;;;21.14;67.54;96443.97;5055666;28;20038;-65
2021/08/04 01:29:44;;;;;;;12.10;8.32;;;;;;;21.15;67.79;96445.63;5073307;28;20351;-65
2021/08/04 01:32:11;;;;;;;18.33;8.30;;;;;;;21.17;67.61;96451.69;5073267;28;20377;-65
2021/08/04 01:34:40;;;;;;;11.95;8.93;;;;;;;21.11;66.65;96446.88;5073082;28;20027;-65
2021/08/04 01:37:07;;;;;;;16.80;8.88;;;;;;;21.11;67.49;96452.19;5073014;28;20475;-65
2021/08/04 01:39:34;;;;;;;11.63;7.97;;;;;;;21.07;67.96;96451.63;5072993;28;20020;-65
2021/08/04 01:42:02;;;;;;;16.88;8.52;;;;;;;20.96;68.09;96450.66;5072775;28;20051;-65
2021/08/04 01:44:29;;;;;;;14.57;8.70;;;;;;;20.96;68.34;96452.50;5073123;28;20493;-65
2021/08/04 01:46:56;;;;;;;12.07;8.80;;;;;;;20.95;68.76;96448.97;5072973;28;20020;-66
2021/08/04 01:49:22;;;;;;;13.75;8.65;;;;;;;20.93;68.17;96447.41;5072999;28;20021;-65
2021/08/04 01:51:49;;;;;;;13.30;7.78;;;;;;;20.91;68.37;96454.66;5072960;28;20032;-65
2021/08/04 01:54:16;;;;;;;12.02;7.97;;;;;;;20.92;68.28;96451.88;5073031;28;20025;-65
2021/08/04 01:56:44;;;;;;;11.95;8.82;;;;;;;20.84;68.71;96457.78;5073881;28;20119;-65
2021/08/04 01:59:09;;;;;;;15.63;10.00;;;;;;;20.75;68.33;96458.56;5079636;28;20024;-65
2021/08/04 02:01:36;;;;;;;18.33;8.35;;;;;;;20.82;68.70;96459.75;5079579;28;20028;-65
2021/08/04 02:04:01;;;;;;;13.93;7.85;;;;;;;20.79;68.11;96459.13;5079460;28;20039;-65
2021/08/04 02:06:50;;;;;;;15.15;9.18;;;;;;;20.73;68.33;96456.97;5079590;28;20029;-65
2021/08/04 02:09:50;;;;;;;16.42;9.00;;;;;;;20.75;68.92;96458.56;5079585;28;20031;-65
2021/08/04 02:12:16;;;;;;;16.45;8.45;;;;;;;20.71;69.08;96460.59;5079670;28;20040;-65
2021/08/04 02:14:43;;;;;;;16.73;8.57;;;;;;;20.68;68.61;96458.19;5079541;28;20021;-65
2021/08/04 02:17:19;;;;;;;16.02;8.77;;;;;;;20.68;69.18;96457.38;5079421;28;20539;-65
2021/08/04 02:20:22;;;;;;;13.75;8.40;;;;;;;20.68;68.47;96465.34;5079472;28;20036;-65
2021/08/04 02:23:11;;;;;;;10.07;8.00;;;;;;;20.68;68.74;96471.47;5049450;28;20032;-65
2021/08/04 02:25:50;;;;;;;12.30;8.43;;;;;;;20.69;68.47;96475.84;5079293;28;20032;-65
2021/08/04 02:28:21;;;;;;;15.07;8.48;;;;;;;20.63;68.42;96472.81;5079246;28;20090;-65
2021/08/04 02:30:49;;;;;;;12.48;8.13;;;;;;;20.54;68.92;96477.91;5079483;28;20020;-65
2021/08/04 02:33:15;;;;;;;15.25;8.90;;;;;;;20.50;69.08;96478.28;5079274;28;20075;-65
2021/08/04 02:35:41;;;;;;;19.65;9.00;;;;;;;20.52;69.54;96478.97;5079364;28;20395;-65
2021/08/04 02:38:07;;;;;;;15.85;8.18;;;;;;;20.53;69.00;96484.19;5079043;28;20024;-65
2021/08/04 02:40:32;;;;;;;16.70;8.50;;;;;;;20.46;69.30;96480.31;5079234;28;20025;-65
2021/08/04 02:43:00;;;;;;;14.25;9.88;;;;;;;20.44;69.31;96485.75;5079012;28;20040;-65
2021/08/04 02:45:26;;;;;;;12.32;8.07;;;;;;;20.47;69.15;96489.16;5079205;28;20028;-65
2021/08/04 02:47:53;;;;;;;17.08;9.25;;;;;;;20.49;69.02;96489.84;5078975;28;20028;-65
2021/08/04 02:50:19;;;;;;;10.88;8.57;;;;;;;20.49;69.53;96493.38;5079126;28;20025;-65
2021/08/04 02:52:46;;;;;;;13.95;9.50;;;;;;;20.42;69.55;96494.81;5079203;28;20028;-65
2021/08/04 02:55:12;;;;;;;14.40;8.85;;;;;;;20.32;69.34;96498.19;5079057;28;20498;-65
2021/08/04 02:57:38;;;;;;;15.00;8.32;;;;;;;20.33;69.85;96510.53;5078924;28;20051;-65
2021/08/04 03:00:05;;;;;;;12.68;8.48;;;;;;;20.14;70.21;96502.31;5079001;28;20063;-65
2021/08/04 03:02:30;;;;;;;13.02;9.30;;;;;;;20.07;71.23;96501.91;5079121;28;20032;-65
2021/08/04 03:04:56;;;;;;;17.13;9.77;;;;;;;20.01;71.22;96497.94;5079029;28;20466;-65
2021/08/04 03:07:21;;;;;;;15.80;9.15;;;;;;;20.03;71.17;96497.81;5079201;28;20024;-65
2021/08/04 03:09:47;;;;;;;13.32;8.77;;;;;;;20.03;71.50;96503.13;5075534;28;20024;-65
2021/08/04 03:12:12;;;;;;;13.55;9.18;;;;;;;20.08;71.47;96514.25;5075830;28;20489;-65
2021/08/04 03:14:38;;;;;;;13.02;9.10;;;;;;;20.12;71.25;96510.38;5075747;28;20029;-65
2021/08/04 03:17:04;;;;;;;14.18;9.50;;;;;;;19.99;71.81;96507.81;5075703;28;20041;-65
2021/08/04 03:19:29;;;;;;;14.45;9.20;;;;;;;20.05;71.44;96503.88;5075876;28;20028;-65
2021/08/04 03:21:55;;;;;;;15.82;8.75;;;;;;;20.03;71.69;96508.44;5075572;28;20059;-65
2021/08/04 03:24:20;;;;;;;12.95;8.50;;;;;;;20.05;71.71;96507.34;5075708;28;20027;-65
2021/08/04 03:26:46;;;;;;;13.02;8.43;;;;;;;20.04;71.75;96503.00;5075473;28;20032;-65
2021/08/04 03:29:12;;;;;;;17.02;9.38;;;;;;;20.07;72.48;96507.22;5075470;28;20480;-65
2021/08/04 03:31:37;;;;;;;15.77;9.80;;;;;;;20.13;71.91;96513.88;5075331;28;20067;-65
2021/08/04 03:34:03;;;;;;;12.75;9.00;;;;;;;20.16;70.60;96510.97;5075385;28;20081;-65
2021/08/04 03:36:29;;;;;;;15.23;9.75;;;;;;;20.07;71.61;96504.56;5075189;28;20128;-65
2021/08/04 03:38:54;;;;;;;13.43;8.73;;;;;;;20.14;71.63;96518.22;5075449;28;20111;-65
2021/08/04 03:41:20;;;;;;;15.20;9.05;;;;;;;20.16;71.68;96521.59;5075008;28;20466;-65
2021/08/04 03:43:46;;;;;;;13.80;10.05;;;;;;;20.19;71.15;96521.34;5075179;28;20487;-65
2021/08/04 03:46:12;;;;;;;13.50;9.45;;;;;;;20.28;71.83;96527.75;5075094;28;20016;-65
2021/08/04 03:48:38;;;;;;;16.02;10.45;;;;;;;20.31;71.67;96535.50;5075197;28;20546;-65
2021/08/04 03:51:03;;;;;;;13.10;8.88;;;;;;;20.30;71.66;96537.31;5075100;28;20104;-65
2021/08/04 03:53:29;;;;;;;14.05;8.88;;;;;;;20.37;71.58;96537.69;5075032;28;20374;-65
2021/08/04 03:55:55;;;;;;;15.60;10.02;;;;;;;20.39;71.50;96534.91;5074916;28;20040;-65
2021/08/04 03:58:21;;;;;;;11.63;9.25;;;;;;;20.49;71.21;96529.69;5074965;28;20013;-65
2021/08/04 04:00:46;;;;;;;16.30;9.60;;;;;;;20.64;71.20;96539.13;5075000;28;20367;-65
2021/08/04 04:03:12;;;;;;;14.05;9.65;;;;;;;20.79;70.82;96546.84;5074911;28;20100;-65
2021/08/04 04:05:38;;;;;;;13.70;8.32;;;;;;;20.80;70.42;96527.28;5074707;28;20520;-65
2021/08/04 04:08:04;;;;;;;15.15;9.07;;;;;;;20.89;70.35;96541.66;5074668;28;20040;-65
2021/08/04 04:10:29;;;;;;;14.50;9.48;;;;;;;20.94;70.58;96539.47;5074818;28;20077;-65
2021/08/04 04:12:55;;;;;;;12.68;9.52;;;;;;;20.99;70.74;96545.28;5074853;28;20108;-65
2021/08/04 04:15:21;;;;;;;16.58;9.05;;;;;;;21.08;70.58;96541.88;5074705;28;20024;-65
2021/08/04 04:17:47;;;;;;;14.40;9.30;;;;;;;21.13;70.08;96543.31;5074545;28;20029;-65
2021/08/04 04:20:13;;;;;;;15.82;9.93;;;;;;;21.23;70.95;96541.59;5073698;28;20492;-65
2021/08/04 04:22:43;;;;;;;16.58;9.95;;;;;;;21.35;70.55;96542.41;5074226;28;20057;-65
2021/08/04 04:25:09;;;;;;;;;;;;;;;21.44;70.40;96527.50;5074796;28;20428;-65
2021/08/04 04:27:35;;;;;;;11.52;8.93;;;;;;;21.63;69.95;96524.16;5074284;28;19913;-65
2021/08/04 04:30:00;;;;;;;16.88;9.38;;;;;;;22.02;69.22;96525.41;5074406;28;20020;-65
2021/08/04 04:32:26;;;;;;;13.23;9.00;;;;;;;22.50;68.62;96529.31;5074297;28;20016;-65
2021/08/04 04:34:51;;;;;;;12.10;9.00;;;;;;;22.97;67.15;96538.66;5074004;28;20035;-65
2021/08/04 04:37:17;;;;;;;11.35;7.95;;;;;;;23.33;65.96;96538.97;5056164;28;20113;-65
2021/08/04 04:39:42;;;;;;;12.35;8.07;;;;;;;23.76;64.62;96541.41;5074079;28;20044;-65
2021/08/04 04:42:08;;;;;;;9.25;6.68;;;;;;;24.22;63.89;96538.97;5073857;28;20044;-65
2021/08/04 04:44:33;;;;;;;15.70;9.18;;;;;;;24.70;63.05;96533.59;5073929;28;20101;-65
2021/08/04 04:46:59;;;;;;;9.55;7.82;;;;;;;25.20;61.93;96542.22;5073972;28;20523;-65
2021/08/04 04:49:24;;;;;;;13.13;8.48;;;;;;;25.67;61.23;96531.50;5073785;28;20478;-65
2021/08/04 04:51:50;;;;;;;9.95;6.97;;;;;;;26.20;59.93;96537.75;5073965;28;20024;-66
2021/08/04 04:54:16;;;;;;;9.82;7.35;;;;;;;26.75;58.09;96546.47;5073792;28;20029;-66
2021/08/04 04:56:41;;;;;;;12.90;6.70;;;;;;;27.20;56.49;96550.84;5073744;28;20077;-66
2021/08/04 04:59:07;;;;;;;14.05;6.78;;;;;;;27.57;55.71;96554.13;5073590;28;20155;-66
2021/08/04 05:01:32;;;;;;;13.10;7.35;;;;;;;27.94;54.61;96560.06;5073672;28;20494;-65
2021/08/04 05:03:58;;;;;;;14.90;8.07;;;;;;;28.31;53.52;96565.91;5073698;28;20031;-66
2021/08/04 05:06:23;;;;;;;13.25;8.18;;;;;;;28.58;51.97;96566.53;5073660;28;20474;-66
2021/08/04 05:08:49;;;;;;;13.57;8.50;;;;;;;28.85;51.60;96564.44;5073441;28;20020;-66
2021/08/04 05:11:14;;;;;;;10.88;7.88;;;;;;;29.05;51.55;96562.22;5073444;28;20035;-66
2021/08/04 05:13:40;;;;;;;14.15;7.93;;;;;;;29.34;51.77;96565.25;5073395;28;20036;-66
2021/08/04 05:16:06;;;;;;;19.90;8.45;;;;;;;29.66;51.19;96574.19;5073465;28;20096;-66
2021/08/04 05:18:32;;;;;;;14.10;7.32;;;;;;;29.98;50.15;96571.44;5073362;28;20470;-66
2021/08/04 05:20:57;;;;;;;11.32;7.78;;;;;;;30.31;50.10;96570.31;5073337;28;20107;-66
2021/08/04 05:23:23;;;;;;;13.13;8.30;;;;;;;30.63;48.42;96568.28;5073299;28;20021;-66
2021/08/04 05:25:49;;;;;;;19.85;8.70;;;;;;;30.89;47.16;96569.72;5073183;28;20541;-66
2021/08/04 05:28:14;;;;;;;14.10;8.38;;;;;;;31.07;46.99;96566.66;5073414;28;20417;-67
2021/08/04 05:30:40;;;;;;;14.35;8.85;;;;;;;31.39;46.97;96569.09;5073153;28;20429;-66
2021/08/04 05:33:05;;;;;;;17.00;8.68;;;;;;;31.70;45.71;96564.44;5072924;28;20023;-66
2021/08/04 05:35:31;;;;;;;10.43;7.25;;;;;;;31.94;44.98;96570.53;5073313;28;20021;-66
2021/08/04 05:37:56;;;;;;;11.82;7.68;;;;;;;32.18;43.43;96568.44;5073185;28;20029;-66
2021/08/04 05:40:22;;;;;;;15.18;8.18;;;;;;;32.42;42.98;96572.59;5073071;28;20031;-66
2021/08/04 05:42:48;;;;;;;14.57;7.40;;;;;;;32.62;42.48;96569.19;5072959;28;20058;-66
2021/08/04 05:45:13;;;;;;;11.82;6.95;;;;;;;32.84;42.38;96572.66;5073059;28;20027;-66
2021/08/04 05:47:39;;;;;;;9.80;6.90;;;;;;;32.95;42.25;96571.25;5073055;28;20028;-66
2021/08/04 05:50:05;;;;;;;14.20;7.43;;;;;;;33.08;42.82;96562.38;5073063;28;20437;-66
2021/08/04 05:52:31;;;;;;;14.50;7.57;;;;;;;33.35;42.14;96573.31;5073026;28;20029;-66
2021/08/04 05:54:57;;;;;;;14.07;7.03;;;;;;;33.59;41.82;96573.81;5073011;28;20066;-66
2021/08/04 05:57:22;;;;;;;14.27;7.22;;;;;;;33.62;41.35;96576.13;5072937;28;20363;-66
2021/08/04 05:59:48;;;;;;;12.05;6.70;;;;;;;33.70;41.60;96587.81;5072955;28;20024;-66
2021/08/04 06:02:13;;;;;;;14.73;7.15;;;;;;;33.87;40.94;96578.28;5073071;28;20343;-67
2021/08/04 06:04:39;;;;;;;14.88;7.20;;;;;;;34.08;40.77;96586.44;5072999;28;20052;-66
2021/08/04 06:07:04;;;;;;;13.80;7.72;;;;;;;34.27;40.38;96582.91;5072992;28;20032;-66
2021/08/04 06:09:30;;;;;;;15.65;7.50;;;;;;;34.38;39.53;96576.03;5072876;28;20664;-66
2021/08/04 06:11:57;;;;;;;13.60;7.68;;;;;;;34.32;39.58;96581.44;5072808;28;20052;-67
2021/08/04 06:14:23;;;;;;;14.23;7.18;;;;;;;34.43;39.69;96588.13;5072758;28;20016;-66
2021/08/04 06:16:49;;;;;;;15.13;7.70;;;;;;;34.53;39.10;96588.53;5072803;28;20493;-66
2021/08/04 06:19:15;;;;;;;11.68;7.63;;;;;;;34.68;39.32;96591.03;5072774;28;20036;-67
2021/08/04 06:21:40;;;;;;;14.65;8.07;;;;;;;34.32;39.29;96600.44;5072902;28;20475;-67
2021/08/04 06:24:06;;;;;;;12.05;7.82;;;;;;;34.50;39.39;96600.66;5072782;28;20063;-66
2021/08/04 06:26:32;;;;;;;14.60;7.68;;;;;;;34.70;39.62;96590.84;5072621;28;20040;-66
2021/08/04 06:28:57;;;;;;;11.15;7.78;;;;;;;34.86;38.72;96587.66;5072558;28;20029;-66
2021/08/04 06:31:23;;;;;;;19.50;8.35;;;;;;;35.20;39.25;96595.72;5072753;28;20020;-66
2021/08/04 06:33:49;;;;;;;10.43;7.35;;;;;;;35.51;39.16;96590.56;5072663;28;20036;-67
2021/08/04 06:36:14;;;;;;;17.35;7.60;;;;;;;35.60;37.42;96593.88;5072463;28;20028;-66
2021/08/04 06:38:40;;;;;;;16.02;8.23;;;;;;;35.47;37.14;96581.19;5072545;28;20072;-67
2021/08/04 06:41:05;;;;;;;16.70;7.97;;;;;;;35.42;37.67;96579.09;5072535;28;20031;-66
2021/08/04 06:43:32;;;;;;;14.98;7.88;;;;;;;35.33;38.10;96586.69;5072548;28;20090;-66
2021/08/04 06:45:58;;;;;;;15.77;8.10;;;;;;;35.51;37.72;96585.13;5076361;28;20021;-67
2021/08/04 06:48:23;;;;;;;14.30;7.88;;;;;;;35.71;36.90;96589.66;5076241;28;20020;-66
2021/08/04 06:50:49;;;;;;;14.07;7.00;;;;;;;35.84;36.50;96592.28;5076167;28;20356;-66
2021/08/04 06:53:15;;;;;;;15.23;7.90;;;;;;;35.81;36.22;96589.19;5076189;28;20066;-67
2021/08/04 06:55:40;;;;;;;22.95;7.88;;;;;;;35.94;36.39;96590.97;5076076;28;20078;-67
2021/08/04 06:58:06;;;;;;;13.32;7.32;;;;;;;36.16;36.11;96592.28;5075837;28;20490;-67
2021/08/04 07:00:32;;;;;;;12.38;7.20;;;;;;;36.15;36.01;96597.94;5076034;28;20024;-66
2021/08/04 07:02:57;;;;;;;13.45;7.03;;;;;;;36.17;35.72;96591.22;5076004;28;20078;-66
2021/08/04 07:05:23;;;;;;;14.40;6.90;;;;;;;36.12;35.40;96587.50;5075918;28;20020;-67
2021/08/04 07:07:49;;;;;;;16.17;8.02;;;;;;;36.29;35.21;96583.19;5075767;28;20437;-66
2021/08/04 07:10:14;;;;;;;15.30;7.32;;;;;;;36.49;34.74;96587.63;5075932;28;20059;-66
2021/08/04 07:12:40;;;;;;;16.88;8.82;;;;;;;36.76;34.94;96573.78;5075941;28;20485;-67
2021/08/04 07:15:06;;;;;;;23.15;7.78;;;;;;;36.98;34.44;96578.75;5075803;28;20089;-67
2021/08/04 07:17:46;;;;;;;14.52;7.28;;;;;;;37.14;33.12;96579.22;5075690;28;20029;-67
2021/08/04 07:20:14;;;;;;;20.60;8.07;;;;;;;37.28;33.03;96572.56;5075731;28;20428;-66
2021/08/04 07:22:39;;;;;;;19.27;7.85;;;;;;;37.42;33.25;96575.97;5075656;28;20024;-67
2021/08/04 07:25:05;;;;;;;16.35;7.82;;;;;;;37.29;32.51;96582.41;5075614;28;20085;-66
2021/08/04 07:27:31;;;;;;;17.23;7.65;;;;;;;37.32;33.20;96588.47;5075530;28;20017;-67
2021/08/04 07:29:57;;;;;;;11.10;7.35;;;;;;;37.21;32.79;96588.19;5075380;28;20017;-66
2021/08/04 07:32:22;;;;;;;20.00;8.57;;;;;;;37.12;33.31;96587.63;5075426;28;20475;-66
2021/08/04 07:34:48;;;;;;;18.20;8.07;;;;;;;37.12;32.85;96575.88;5075336;28;20028;-67
2021/08/04 07:37:13;;;;;;;18.08;8.52;;;;;;;37.14;33.28;96582.75;5057399;28;20103;-66
2021/08/04 07:39:39;;;;;;;21.00;8.57;;;;;;;37.14;33.36;96581.94;5075219;28;20012;-66
2021/08/04 07:42:05;;;;;;;14.15;7.45;;;;;;;37.29;33.84;96585.13;5075063;28;20521;-66
2021/08/04 07:44:31;;;;;;;20.00;8.02;;;;;;;37.30;33.11;96577.78;5075260;28;20047;-66
2021/08/04 07:46:56;;;;;;;18.40;8.02;;;;;;;37.31;32.97;96574.00;5075308;28;20048;-66
2021/08/04 07:49:22;;;;;;;15.30;8.10;;;;;;;37.22;33.04;96578.94;5075040;28;20535;-66
2021/08/04 07:51:47;;;;;;;16.00;7.63;;;;;;;37.28;33.71;96583.47;5075121;28;20052;-67
2021/08/04 07:54:13;;;;;;;18.45;8.07;;;;;;;37.08;33.27;96578.22;5074954;28;20470;-67
2021/08/04 07:56:38;;;;;;;20.13;9.70;;;;;;;37.01;33.56;96575.59;5074649;28;20043;-67
2021/08/04 07:59:04;;;;;;;12.85;8.48;;;;;;;36.73;34.23;96574.22;5074810;28;20027;-67
2021/08/04 08:01:31;;;;;;;16.52;7.90;;;;;;;36.99;33.94;96577.69;5074819;28;20024;-67
2021/08/04 08:03:57;;;;;;;18.25;9.32;;;;;;;36.80;34.35;96568.69;5074904;28;20420;-66
2021/08/04 08:06:22;;;;;;;16.77;9.25;;;;;;;36.99;33.07;96572.25;5074792;28;20028;-67
2021/08/04 08:08:48;;;;;;;16.75;9.18;;;;;;;37.14;33.37;96580.03;5074876;28;20031;-67
2021/08/04 08:11:14;;;;;;;15.00;9.43;;;;;;;36.93;33.14;96570.47;5074662;28;20024;-67
2021/08/04 08:13:39;;;;;;;18.33;8.80;;;;;;;36.75;33.04;96571.28;5074723;28;20101;-67
2021/08/04 08:16:05;;;;;;;17.90;9.32;;;;;;;35.97;35.23;96569.63;5074527;28;20479;-66
2021/08/04 08:18:31;;;;;;;15.75;8.65;;;;;;;36.04;35.15;96567.66;5074636;28;20024;-67
2021/08/04 08:20:57;;;;;;;15.27;8.95;;;;;;;35.99;35.04;96570.22;5074513;28;20056;-67
2021/08/04 08:23:22;;;;;;;14.75;8.32;;;;;;;36.01;35.39;96561.81;5074354;28;20378;-66
2021/08/04 08:25:48;;;;;;;16.67;8.63;;;;;;;36.12;34.02;96568.44;5074409;28;20032;-66
2021/08/04 08:28:15;;;;;;;19.92;8.88;;;;;;;36.10;34.33;96559.66;5074329;28;20025;-66
2021/08/04 08:30:42;;;;;;;11.77;7.50;;;;;;;36.49;32.76;96570.44;5074289;28;20017;-66
2021/08/04 08:33:08;;;;;;;13.70;8.18;;;;;;;36.61;33.37;96555.03;5074129;28;20021;-66
2021/08/04 08:35:34;;;;;;;20.73;9.43;;;;;;;36.69;34.03;96566.69;5074368;28;20025;-66
2021/08/04 08:38:00;;;;;;;17.98;9.10;;;;;;;36.76;34.15;96556.59;5074041;28;20032;-66
2021/08/04 08:40:25;;;;;;;13.25;8.50;;;;;;;36.78;33.26;96549.03;5074044;28;20028;-67
2021/08/04 08:42:52;;;;;;;16.23;8.18;;;;;;;36.52;32.12;96548.22;5074099;28;20082;-66
2021/08/04 08:45:18;;;;;;;14.48;8.60;;;;;;;36.45;32.55;96542.84;5073955;28;20032;-66
2021/08/04 08:47:45;;;;;;;14.27;8.35;;;;;;;36.43;32.37;96547.69;5073891;28;20036;-66
2021/08/04 08:50:12;;;;;;;14.23;8.02;;;;;;;36.47;33.53;96542.63;5073763;28;20016;-66
2021/08/04 08:52:38;;;;;;;17.30;9.07;;;;;;;36.52;33.78;96538.19;5073860;28;20217;-66
2021/08/04 08:55:06;;;;;;;13.40;8.05;;;;;;;36.57;33.46;96537.50;5073878;28;20394;-66
2021/08/04 08:57:31;;;;;;;15.68;8.48;;;;;;;36.70;32.97;96533.81;5073645;28;20040;-66
2021/08/04 08:59:57;;;;;;;13.20;8.07;;;;;;;36.82;33.34;96531.19;5073707;28;20359;-66
2021/08/04 09:02:28;;;;;;;14.43;7.85;;;;;;;37.03;32.30;96529.03;5073826;28;20081;-66
2021/08/04 09:05:00;;;;;;;;;;;;;;;37.24;30.69;96527.75;5074258;28;20033;-66
2021/08/04 09:07:34;;;;;;;13.80;8.25;;;;;;;37.10;31.85;96521.59;5072987;28;19913;-66
2021/08/04 09:10:01;;;;;;;11.75;8.07;;;;;;;36.65;31.49;96518.13;5073650;28;20036;-66
2021/08/04 09:12:27;;;;;;;10.48;7.88;;;;;;;36.37;32.33;96516.75;5073481;28;20031;-66
2021/08/04 09:14:52;;;;;;;12.98;8.55;;;;;;;36.53;33.58;96518.06;5073630;28;20021;-66
2021/08/04 09:17:18;;;;;;;16.67;8.82;;;;;;;36.83;31.80;96518.41;5073372;28;20047;-66
2021/08/04 09:19:46;;;;;;;16.55;7.88;;;;;;;36.64;32.37;96508.31;5073344;28;20013;-66
2021/08/04 09:22:20;;;;;;;18.40;8.77;;;;;;;36.65;32.01;96506.41;5073417;28;20432;-66
2021/08/04 09:25:01;;;;;;;13.57;8.45;;;;;;;36.18;33.21;96499.53;5073508;28;20033;-66
2021/08/04 09:27:59;;;;;;;13.57;8.30;;;;;;;36.45;34.57;96493.00;5073329;28;20021;-66
2021/08/04 09:30:29;;;;;;;15.70;7.70;;;;;;;36.31;33.11;96498.59;5028876;28;20381;-66
2021/08/04 09:33:21;;;;;;;14.80;8.65;;;;;;;36.18;34.19;96499.53;5073392;28;20028;-66
2021/08/04 09:35:54;;;;;;;13.18;8.00;;;;;;;36.22;33.72;96492.63;5073113;28;20048;-66
2021/08/04 09:38:21;;;;;;;19.10;8.80;;;;;;;36.36;32.62;96490.56;5073122;28;20538;-66
2021/08/04 09:41:07;;;;;;;12.07;8.40;;;;;;;36.43;33.63;96490.50;5073131;28;20394;-66
2021/08/04 09:43:33;;;;;;;16.52;8.45;;;;;;;36.42;33.68;96491.59;5072654;28;20048;-66
2021/08/04 09:45:58;;;;;;;14.13;8.27;;;;;;;36.30;33.07;96486.06;5073217;28;20052;-66
2021/08/04 09:48:26;;;;;;;15.93;9.13;;;;;;;36.32;33.10;96478.47;5073112;28;20040;-66
2021/08/04 09:51:01;;;;;;;18.83;9.02;;;;;;;35.98;33.84;96483.38;5073030;28;20025;-66
2021/08/04 09:53:31;;;;;;;14.43;7.80;;;;;;;35.46;34.76;96470.78;5073181;28;20035;-66
2021/08/04 09:56:06;;;;;;;20.38;9.05;;;;;;;35.08;33.84;96469.72;5073155;28;20031;-66
2021/08/04 09:58:32;;;;;;;14.30;8.05;;;;;;;35.03;33.68;96475.81;5073050;28;20527;-66
2021/08/04 10:01:02;;;;;;;15.45;8.07;;;;;;;35.07;35.15;96468.06;5072952;28;20025;-66
2021/08/04 10:03:29;;;;;;;21.10;9.63;;;;;;;35.27;33.69;96460.66;5073021;28;20035;-66
2021/08/04 10:05:55;;;;;;;14.40;8.25;;;;;;;35.42;33.04;96454.91;5072974;28;20522;-66
2021/08/04 10:08:21;;;;;;;20.92;8.27;;;;;;;35.47;33.41;96447.97;5072933;28;20028;-66
2021/08/04 10:10:50;;;;;;;14.60;8.27;;;;;;;35.46;33.59;96449.88;5072762;28;20025;-66
2021/08/04 10:13:21;;;;;;;21.55;9.32;;;;;;;35.44;34.32;96442.97;5072859;28;20024;-66
2021/08/04 10:15:52;;;;;;;16.17;7.82;;;;;;;35.52;33.48;96434.56;5072885;28;20021;-66
2021/08/04 10:18:23;;;;;;;19.88;8.35;;;;;;;35.75;34.02;96435.88;5074067;28;20036;-66
2021/08/04 10:21:00;;;;;;;14.90;7.72;;;;;;;36.08;34.55;96440.16;5076787;28;20051;-66
2021/08/04 10:23:27;;;;;;;17.00;8.07;;;;;;;36.00;33.83;96430.41;5076644;28;20029;-66
2021/08/04 10:25:57;;;;;;;17.45;7.03;;;;;;;36.01;32.85;96425.81;5076591;28;20042;-66
2021/08/04 10:28:24;;;;;;;20.33;8.18;;;;;;;35.88;31.88;96424.88;5076760;28;20033;-66
2021/08/04 10:30:50;;;;;;;14.82;8.07;;;;;;;35.92;33.10;96431.53;5058537;28;20025;-66
2021/08/04 10:33:17;;;;;;;18.33;7.85;;;;;;;35.81;33.00;96431.44;5076517;28;20020;-66
2021/08/04 10:36:03;;;;;;;13.98;8.20;;;;;;;35.77;31.57;96428.31;5076519;28;20111;-66
2021/08/04 10:38:30;;;;;;;17.13;7.90;;;;;;;35.94;32.66;96430.47;5076567;28;20029;-66
2021/08/04 10:41:14;;;;;;;12.52;7.40;;;;;;;36.20;31.53;96425.88;5076460;28;20123;-66
2021/08/04 10:43:53;;;;;;;12.75;7.65;;;;;;;36.27;31.38;96413.03;5076082;28;20041;-67
2021/08/04 10:46:31;;;;;;;15.15;8.07;;;;;;;36.30;31.58;96412.56;5076483;28;20035;-66
2021/08/04 10:49:06;;;;;;;15.93;8.35;;;;;;;35.86;31.12;96405.25;5076327;28;20095;-67
2021/08/04 10:51:43;;;;;;;15.77;8.02;;;;;;;35.67;31.91;96407.06;5076348;28;20024;-66
2021/08/04 10:54:17;;;;;;;11.55;7.97;;;;;;;35.74;31.44;96399.69;5076116;28;20487;-66
2021/08/04 10:56:43;;;;;;;19.17;8.38;;;;;;;35.89;31.49;96396.63;5076108;28;20111;-66
2021/08/04 10:59:08;;;;;;;19.13;7.65;;;;;;;35.94;31.31;96393.25;5076036;28;20116;-67
2021/08/04 11:01:35;;;;;;;20.55;8.18;;;;;;;35.78;30.75;96386.47;5075958;28;20064;-67
2021/08/04 11:04:02;;;;;;;19.77;7.80;;;;;;;35.66;30.60;96391.78;5058072;28;20070;-66
2021/08/04 11:06:28;;;;;;;18.05;7.90;;;;;;;35.55;30.98;96385.19;5075828;28;20028;-66
2021/08/04 11:09:12;;;;;;;16.52;7.32;;;;;;;35.49;31.68;96389.66;5075924;28;20470;-66
2021/08/04 11:11:52;;;;;;;18.05;7.47;;;;;;;35.44;32.02;96385.91;5075827;28;20079;-66
2021/08/04 11:14:49;;;;;;;18.85;7.57;;;;;;;35.30;30.79;96380.56;5075834;28;20028;-66
2021/08/04 11:17:26;;;;;;;11.43;7.20;;;;;;;35.18;32.35;96383.16;5075641;28;20501;-66
2021/08/04 11:19:58;;;;;;;15.35;7.32;;;;;;;35.13;32.93;96388.41;5075851;28;20078;-66
2021/08/04 11:22:28;;;;;;;18.15;7.65;;;;;;;35.21;32.50;96384.63;5075611;28;20089;-66
2021/08/04 11:24:56;;;;;;;17.95;7.70;;;;;;;35.45;29.62;96384.88;5075645;28;20386;-66
2021/08/04 11:27:25;;;;;;;15.18;6.40;;;;;;;35.49;31.14;96370.63;5075650;28;20064;-66
2021/08/04 11:29:52;;;;;;;15.80;6.93;;;;;;;35.58;31.44;96368.44;5074730;28;20085;-66